Time;durP1;ratioP1;P1;durP2;ratioP2;P2;SDS_P1;SDS_P2;PMS_P1;PMS_P2;Temp;Humidity;BMP_temperature;BMP_pressure;BME280_temperature;BME280_humidity;BME280_pressure;Samples;Min_cycle;Max_cycle;Signal;HPM_P1;HPM_P2
2024/02/16 06:02:13;;;;;;;6.95;3.63;;;9.80;84.00;;;;;;4148600;23;20063;-79
2024/02/16 06:04:14;;;;;;;6.05;3.13;;;9.90;84.30;;;;;;4069353;29;20059;-78
2024/02/16 06:06:17;;;;;;;7.40;3.50;;;9.90;84.30;;;;;;4070201;29;20044;-78
2024/02/16 06:08:19;;;;;;;6.22;3.38;;;9.90;84.20;;;;;;4069675;29;20111;-79
2024/02/16 06:10:21;;;;;;;6.50;3.20;;;10.00;84.10;;;;;;4069759;29;20087;-78
2024/02/16 06:12:23;;;;;;;7.70;3.30;;;10.00;84.10;;;;;;4069814;29;20059;-76
2024/02/16 06:14:24;;;;;;;5.15;2.80;;;9.90;84.30;;;;;;4069872;29;20056;-78
2024/02/16 06:16:26;;;;;;;6.80;3.08;;;9.90;84.60;;;;;;4069918;29;20155;-76
2024/02/16 06:18:30;;;;;;;7.85;4.18;;;9.90;84.50;;;;;;4069745;29;20123;-78
2024/02/16 06:20:32;;;;;;;6.82;3.17;;;10.00;84.40;;;;;;4069807;29;20442;-76
2024/02/16 06:22:34;;;;;;;10.05;3.50;;;10.00;84.10;;;;;;4069572;29;20059;-78
2024/02/16 06:24:35;;;;;;;6.45;3.30;;;10.00;84.30;;;;;;4056629;29;20450;-77
2024/02/16 06:26:37;;;;;;;6.80;3.38;;;10.00;84.00;;;;;;4069615;29;20406;-77
2024/02/16 06:28:39;;;;;;;7.15;3.35;;;10.00;83.80;;;;;;4069596;29;20052;-76
2024/02/16 06:30:41;;;;;;;6.95;3.28;;;9.90;83.10;;;;;;4069604;29;20052;-77
2024/02/16 06:32:42;;;;;;;8.20;3.75;;;10.00;83.10;;;;;;4069396;29;20144;-78
2024/02/16 06:34:45;;;;;;;10.65;3.90;;;10.00;82.50;;;;;;4069422;29;20182;-78
2024/02/16 06:36:47;;;;;;;6.32;3.20;;;10.00;82.90;;;;;;4069515;29;20044;-78
2024/02/16 06:38:49;;;;;;;6.68;3.30;;;10.00;83.10;;;;;;4069620;29;20048;-77
2024/02/16 06:40:51;;;;;;;6.30;3.63;;;10.00;82.40;;;;;;4069878;29;20055;-78
2024/02/16 06:42:53;;;;;;;7.25;3.47;;;10.10;82.20;;;;;;4069616;29;20051;-76
2024/02/16 06:44:55;;;;;;;6.15;3.40;;;10.10;82.20;;;;;;4069917;29;20047;-78
2024/02/16 06:46:56;;;;;;;7.03;3.10;;;10.10;81.30;;;;;;4069577;29;20048;-77
2024/02/16 06:48:58;;;;;;;5.50;2.90;;;10.10;80.80;;;;;;4069501;29;20051;-77
2024/02/16 06:51:01;;;;;;;6.22;2.90;;;10.20;80.20;;;;;;4069410;29;20055;-78
2024/02/16 06:53:04;;;;;;;6.13;2.92;;;10.20;80.10;;;;;;4069384;29;20217;-78
2024/02/16 06:55:06;;;;;;;7.00;3.10;;;10.20;80.40;;;;;;4069465;29;20052;-78
2024/02/16 06:57:08;;;;;;;5.68;2.90;;;10.20;81.90;;;;;;4069416;29;20079;-79
2024/02/16 06:59:10;;;;;;;6.13;2.80;;;10.20;81.90;;;;;;4069057;29;20043;-78
2024/02/16 07:01:12;;;;;;;5.88;3.00;;;10.20;81.00;;;;;;4069066;29;20055;-78
2024/02/16 07:03:14;;;;;;;5.32;2.67;;;10.30;80.30;;;;;;4070611;29;20083;-77
2024/02/16 07:05:17;;;;;;;4.90;2.53;;;10.30;80.00;;;;;;4070588;29;20051;-78
2024/02/16 07:07:21;;;;;;;6.35;2.83;;;10.30;79.50;;;;;;4069241;29;20524;-78
2024/02/16 07:09:22;;;;;;;7.88;3.08;;;10.30;79.10;;;;;;4069002;29;20074;-77
2024/02/16 07:11:24;;;;;;;8.40;3.35;;;10.40;78.60;;;;;;4068915;29;20103;-78
2024/02/16 07:13:26;;;;;;;5.82;2.75;;;10.40;79.20;;;;;;4069061;29;20051;-78
2024/02/16 07:15:28;;;;;;;7.53;3.08;;;10.30;80.20;;;;;;4069079;29;20454;-78
2024/02/16 07:17:30;;;;;;;6.90;3.00;;;10.10;80.00;;;;;;4069332;29;20044;-77
2024/02/16 07:19:32;;;;;;;6.45;2.88;;;10.20;79.60;;;;;;4068869;29;20072;-78
2024/02/16 07:21:33;;;;;;;5.78;2.95;;;10.30;79.60;;;;;;4068797;29;20127;-79
2024/02/16 07:23:37;;;;;;;6.28;2.75;;;10.30;79.10;;;;;;4069008;29;20082;-78
2024/02/16 07:25:38;;;;;;;7.38;3.10;;;10.40;79.20;;;;;;4068734;29;20048;-78
2024/02/16 07:27:41;;;;;;;6.68;3.05;;;10.40;79.40;;;;;;4069066;29;20080;-78
2024/02/16 07:29:43;;;;;;;6.78;3.13;;;10.40;79.60;;;;;;4068778;29;20410;-79
2024/02/16 07:31:45;;;;;;;8.27;3.20;;;10.50;79.50;;;;;;4068800;29;20100;-78
2024/02/16 07:33:46;;;;;;;14.07;3.80;;;10.50;79.60;;;;;;4069004;29;20482;-78
2024/02/16 07:35:47;;;;;;;6.97;3.45;;;10.50;79.80;;;;;;4068511;29;20096;-78
2024/02/16 07:37:51;;;;;;;6.57;3.20;;;10.50;79.90;;;;;;4068833;29;20056;-79
2024/02/16 07:39:54;;;;;;;15.07;6.45;;;10.50;80.00;;;;;;4068792;29;20063;-78
2024/02/16 07:41:56;;;;;;;7.70;3.50;;;10.50;79.40;;;;;;4068802;29;20178;-78
2024/02/16 07:43:58;;;;;;;6.43;3.40;;;10.60;79.30;;;;;;4068561;29;20096;-78
2024/02/16 07:46:00;;;;;;;6.70;3.28;;;10.60;79.80;;;;;;4068842;29;20382;-78
2024/02/16 07:48:05;;;;;;;7.20;3.40;;;10.60;79.40;;;;;;4068688;29;20494;-77
2024/02/16 07:50:07;;;;;;;6.50;3.60;;;10.60;78.80;;;;;;4068888;29;20546;-79
2024/02/16 07:52:09;;;;;;;6.50;3.33;;;10.70;78.80;;;;;;4068619;29;20084;-77
2024/02/16 07:54:10;;;;;;;8.13;3.90;;;10.60;79.00;;;;;;4068660;29;20080;-78
2024/02/16 07:56:14;;;;;;;7.00;3.60;;;10.60;79.00;;;;;;4068908;29;20119;-77
2024/02/16 07:58:15;;;;;;;8.57;4.00;;;10.60;79.10;;;;;;4068742;29;20044;-79
2024/02/16 08:00:18;;;;;;;10.25;3.92;;;10.60;79.30;;;;;;4068926;29;20053;-79
2024/02/16 08:02:20;;;;;;;6.47;3.60;;;10.60;79.20;;;;;;4068630;29;20064;-78
2024/02/16 08:04:22;;;;;;;8.23;4.00;;;10.60;79.30;;;;;;4068650;29;20486;-78
2024/02/16 08:06:26;;;;;;;7.38;3.80;;;10.60;79.80;;;;;;4068760;29;20048;-77
2024/02/16 08:08:29;;;;;;;8.95;4.13;;;10.70;80.60;;;;;;4068511;29;20059;-77
2024/02/16 08:10:30;;;;;;;8.40;4.13;;;10.70;80.70;;;;;;4068458;29;20108;-78
2024/02/16 08:12:35;;;;;;;10.32;4.18;;;10.70;80.80;;;;;;4068674;29;20100;-76
2024/02/16 08:14:37;;;;;;;10.68;4.65;;;10.80;81.00;;;;;;4068645;29;20048;-79
2024/02/16 08:16:39;;;;;;;11.25;4.32;;;10.80;80.90;;;;;;4068516;29;20052;-77
2024/02/16 08:18:41;;;;;;;11.65;4.60;;;10.80;80.70;;;;;;4068639;29;20455;-76
2024/02/16 08:20:43;;;;;;;10.60;4.50;;;10.80;80.60;;;;;;4068365;29;20111;-78
2024/02/16 08:22:44;;;;;;;10.43;4.68;;;10.80;80.10;;;;;;4071438;29;20417;-78
2024/02/16 08:24:47;;;;;;;9.00;4.45;;;10.80;80.30;;;;;;4071741;29;20052;-79
2024/02/16 08:26:48;;;;;;;8.75;4.60;;;10.80;80.20;;;;;;4071561;29;20094;-77
2024/02/16 08:28:52;;;;;;;8.48;4.68;;;10.90;80.30;;;;;;4071742;29;20052;-79
2024/02/16 08:30:52;;;;;;;8.43;4.63;;;10.90;80.30;;;;;;4071388;29;20099;-76
2024/02/16 08:32:54;;;;;;;8.05;4.40;;;10.90;80.10;;;;;;4071364;29;20071;-76
2024/02/16 08:34:55;;;;;;;9.27;4.55;;;10.90;79.70;;;;;;4071445;29;20056;-78
2024/02/16 08:36:57;;;;;;;11.98;4.38;;;10.80;79.70;;;;;;4071343;29;20059;-78
2024/02/16 08:38:59;;;;;;;7.90;4.75;;;10.80;79.90;;;;;;4071243;29;20048;-78
2024/02/16 08:41:00;;;;;;;17.70;10.18;;;10.80;79.60;;;;;;4071278;29;20052;-79
2024/02/16 08:43:03;;;;;;;9.57;4.50;;;10.80;79.80;;;;;;4071298;29;20091;-78
2024/02/16 08:45:07;;;;;;;11.35;4.50;;;10.70;80.80;;;;;;4071070;29;20075;-79
2024/02/16 08:47:09;;;;;;;8.60;4.40;;;10.80;80.00;;;;;;4071111;29;20103;-79
2024/02/16 08:49:10;;;;;;;12.05;6.95;;;10.80;80.10;;;;;;4070928;29;20052;-79
2024/02/16 08:51:12;;;;;;;9.73;4.57;;;10.80;80.10;;;;;;4070909;29;20051;-79
2024/02/16 08:53:14;;;;;;;8.57;4.28;;;10.80;80.30;;;;;;4054598;29;20069;-78
2024/02/16 08:55:16;;;;;;;6.45;4.00;;;10.80;79.60;;;;;;4071047;29;20418;-77
2024/02/16 08:57:18;;;;;;;9.05;3.80;;;10.90;79.30;;;;;;4071304;29;20048;-77
2024/02/16 08:59:20;;;;;;;9.13;3.83;;;10.90;78.00;;;;;;4070925;29;20309;-77
2024/02/16 09:01:32;;;;;;;8.10;4.10;;;11.00;77.00;;;;;;4070783;29;20055;-77
2024/02/16 09:03:38;;;;;;;8.40;3.83;;;11.00;76.40;;;;;;4070868;29;20056;-78
2024/02/16 09:05:39;;;;;;;6.45;3.65;;;11.00;76.20;;;;;;4071310;29;20048;-77
2024/02/16 09:07:41;;;;;;;7.57;3.70;;;11.10;76.10;;;;;;4072473;29;20084;-78
2024/02/16 09:09:43;;;;;;;5.97;3.35;;;11.10;75.90;;;;;;4073420;29;20128;-78
2024/02/16 09:11:45;;;;;;;6.50;3.60;;;11.10;75.70;;;;;;4072117;29;20091;-77
2024/02/16 09:13:47;;;;;;;8.02;3.88;;;11.10;75.50;;;;;;4071653;29;20486;-78
2024/02/16 09:15:48;;;;;;;8.25;3.70;;;11.10;76.10;;;;;;4070873;29;20085;-78
2024/02/16 09:17:53;;;;;;;7.15;3.80;;;11.20;75.30;;;;;;4070487;29;20101;-78
2024/02/16 09:19:56;;;;;;;6.70;4.10;;;11.20;75.10;;;;;;4070657;29;20421;-78
2024/02/16 09:22:01;;;;;;;9.00;4.10;;;11.30;75.00;;;;;;4070517;29;20135;-78
2024/02/16 09:24:04;;;;;;;7.70;3.60;;;11.30;75.00;;;;;;4070647;29;20052;-78
2024/02/16 09:26:06;;;;;;;7.22;3.30;;;11.40;74.70;;;;;;4070458;29;20108;-78
2024/02/16 09:28:08;;;;;;;8.30;3.28;;;11.50;74.30;;;;;;4070281;29;20051;-79
2024/02/16 09:30:11;;;;;;;8.20;3.70;;;11.60;74.30;;;;;;4070524;29;20107;-79
2024/02/16 09:32:13;;;;;;;7.05;3.17;;;11.70;74.20;;;;;;4070401;29;20056;-78
2024/02/16 09:34:16;;;;;;;8.45;3.42;;;11.70;74.10;;;;;;4069521;29;20482;-79
2024/02/16 09:36:18;;;;;;;6.47;3.42;;;11.80;73.60;;;;;;4070039;29;20056;-79
2024/02/16 09:38:20;;;;;;;6.07;3.08;;;11.90;73.20;;;;;;4070235;29;20100;-79
2024/02/16 09:40:22;;;;;;;6.80;3.17;;;12.00;72.70;;;;;;4070371;29;20534;-78
2024/02/16 09:42:25;;;;;;;5.75;3.08;;;12.10;72.00;;;;;;4070249;29;20139;-79
2024/02/16 09:44:29;;;;;;;5.50;2.75;;;12.20;71.50;;;;;;4070253;29;20052;-78
2024/02/16 09:46:32;;;;;;;10.73;3.65;;;12.30;71.40;;;;;;4069875;29;20044;-77
2024/02/16 09:48:34;;;;;;;9.38;3.83;;;12.40;71.60;;;;;;4070507;29;20094;-79
2024/02/16 09:50:37;;;;;;;7.85;3.28;;;12.50;72.40;;;;;;4070235;29;20100;-79
2024/02/16 09:52:41;;;;;;;9.18;3.10;;;12.60;72.30;;;;;;4070222;29;20478;-78
2024/02/16 09:54:42;;;;;;;5.95;2.72;;;12.60;71.10;;;;;;4069994;29;20126;-78
2024/02/16 09:56:45;;;;;;;4.75;2.40;;;12.80;69.70;;;;;;4070290;29;20075;-79
2024/02/16 09:58:47;;;;;;;5.65;2.10;;;12.90;68.00;;;;;;4070278;29;20091;-78
2024/02/16 10:00:49;;;;;;;5.20;2.20;;;13.10;67.00;;;;;;4070078;29;20056;-79
2024/02/16 10:02:51;;;;;;;4.72;2.10;;;13.20;66.20;;;;;;4069957;29;20072;-79
2024/02/16 10:04:54;;;;;;;4.32;2.00;;;13.30;65.40;;;;;;4069902;29;20048;-79
2024/02/16 10:06:58;;;;;;;6.35;2.45;;;13.40;65.00;;;;;;4069983;29;20052;-78
2024/02/16 10:09:06;;;;;;;4.40;1.92;;;13.50;63.50;;;;;;4069992;29;20164;-79
2024/02/16 10:11:08;;;;;;;4.78;2.00;;;13.70;63.60;;;;;;4069900;29;20056;-78
2024/02/16 10:13:11;;;;;;;7.60;2.30;;;13.70;63.30;;;;;;4069966;29;20395;-79
2024/02/16 10:15:20;;;;;;;5.85;2.42;;;13.80;62.80;;;;;;4070013;29;20052;-79
2024/02/16 10:17:20;;;;;;;5.97;2.00;;;14.00;62.40;;;;;;4069799;29;20100;-79
2024/02/16 10:19:23;;;;;;;4.65;1.90;;;14.00;61.70;;;;;;4054353;29;20124;-79
2024/02/16 10:21:27;;;;;;;5.22;2.10;;;14.20;61.10;;;;;;4054272;29;20570;-79
2024/02/16 10:23:30;;;;;;;5.05;2.10;;;14.30;60.10;;;;;;4062868;29;20059;-78
2024/02/16 10:25:32;;;;;;;4.85;1.98;;;14.40;60.50;;;;;;4069480;29;20120;-78
2024/02/16 10:27:35;;;;;;;6.97;2.15;;;14.40;60.40;;;;;;4069723;29;20060;-76
2024/02/16 10:29:38;;;;;;;5.22;2.05;;;14.50;59.90;;;;;;4069890;29;20052;-77
2024/02/16 10:31:39;;;;;;;5.55;1.90;;;14.60;59.80;;;;;;4069921;29;20056;-77
2024/02/16 10:33:43;;;;;;;4.32;1.88;;;14.60;59.20;;;;;;4069711;29;20174;-77
2024/02/16 10:35:46;;;;;;;4.97;2.30;;;14.60;59.50;;;;;;4069113;29;20478;-78
2024/02/16 10:37:49;;;;;;;4.63;1.95;;;14.70;59.90;;;;;;4069297;29;20052;-79
2024/02/16 10:39:53;;;;;;;6.03;2.03;;;14.80;59.40;;;;;;4068987;29;20052;-78
2024/02/16 10:41:59;;;;;;;5.63;2.13;;;14.80;59.40;;;;;;4069358;29;20517;-77
2024/02/16 10:44:02;;;;;;;4.55;1.80;;;14.90;59.60;;;;;;4058042;29;20048;-78
2024/02/16 10:46:04;;;;;;;5.30;2.13;;;15.00;59.20;;;;;;4059318;29;20052;-77
2024/02/16 10:48:08;;;;;;;4.95;2.00;;;15.10;59.20;;;;;;4069101;29;20048;-79
2024/02/16 10:50:10;;;;;;;4.25;1.90;;;15.20;59.10;;;;;;4069339;29;20055;-77
2024/02/16 10:52:15;;;;;;;4.70;2.20;;;15.30;59.10;;;;;;4069382;29;20097;-78
2024/02/16 10:54:20;;;;;;;5.97;1.88;;;15.40;58.70;;;;;;4069324;29;20056;-77
2024/02/16 10:56:34;;;;;;;4.15;1.80;;;15.40;58.60;;;;;;4068737;29;20048;-77
2024/02/16 10:58:38;;;;;;;3.97;2.05;;;15.50;58.40;;;;;;4065274;29;20410;-78
2024/02/16 11:00:52;;;;;;;5.30;1.95;;;15.60;58.60;;;;;;4055100;29;20471;-79
2024/02/16 11:02:56;;;;;;;4.88;1.98;;;15.60;58.10;;;;;;4054674;29;20100;-79
2024/02/16 11:04:58;;;;;;;4.72;2.38;;;15.70;58.50;;;;;;4069226;29;20375;-80
2024/02/16 11:07:01;;;;;;;6.03;2.00;;;15.80;58.20;;;;;;4069218;29;20103;-79
2024/02/16 11:09:07;;;;;;;5.15;2.05;;;15.70;58.30;;;;;;4069355;29;20104;-77
2024/02/16 11:11:11;;;;;;;6.35;2.10;;;15.80;58.20;;;;;;4067625;29;20043;-80
2024/02/16 11:13:25;;;;;;;5.38;2.00;;;15.80;58.00;;;;;;4075040;29;20044;-78
2024/02/16 11:15:30;;;;;;;6.13;2.03;;;15.90;58.50;;;;;;4077088;29;20048;-81
2024/02/16 11:17:33;;;;;;;;;;;15.90;58.10;;;;;;4076545;29;20414;-81
2024/02/16 11:19:35;;;;;;;5.03;1.80;;;15.80;58.00;;;;;;4047145;29;19924;-79
2024/02/16 11:21:37;;;;;;;5.35;1.95;;;15.90;57.50;;;;;;4067743;29;20480;-79
2024/02/16 11:23:41;;;;;;;4.00;1.80;;;15.90;57.40;;;;;;4068992;29;20048;-77
2024/02/16 11:25:51;;;;;;;4.75;1.77;;;15.90;56.80;;;;;;4068424;29;20047;-76
2024/02/16 11:27:53;;;;;;;3.92;1.52;;;16.00;56.90;;;;;;4069059;29;20052;-78
2024/02/16 11:30:00;;;;;;;5.22;1.80;;;16.10;56.90;;;;;;4068574;29;20047;-78
2024/02/16 11:32:02;;;;;;;6.85;2.00;;;16.20;56.80;;;;;;4069062;29;20139;-78
2024/02/16 11:34:04;;;;;;;4.50;1.60;;;16.30;56.20;;;;;;4068929;29;20083;-77
2024/02/16 11:36:08;;;;;;;4.32;1.77;;;16.30;56.10;;;;;;4068984;29;20162;-78
2024/02/16 11:38:11;;;;;;;3.97;1.80;;;16.40;55.90;;;;;;4069286;29;20076;-78
2024/02/16 11:40:12;;;;;;;4.55;1.80;;;16.50;56.10;;;;;;4069174;29;20495;-76
2024/02/16 11:42:15;;;;;;;5.90;1.85;;;16.60;55.60;;;;;;4069313;29;20529;-78
2024/02/16 11:44:17;;;;;;;4.40;1.65;;;16.80;55.70;;;;;;4068262;29;20083;-77
2024/02/16 11:46:21;;;;;;;6.05;2.03;;;16.90;55.50;;;;;;4068831;29;20048;-78
2024/02/16 11:48:24;;;;;;;3.85;1.80;;;17.10;54.90;;;;;;4068765;29;20055;-77
2024/02/16 11:50:27;;;;;;;4.50;1.75;;;17.10;55.40;;;;;;4068879;29;20056;-76
2024/02/16 11:52:29;;;;;;;4.78;2.05;;;17.20;54.70;;;;;;4068885;29;20049;-75
2024/02/16 11:54:32;;;;;;;4.60;1.80;;;17.30;54.80;;;;;;4069021;29;20108;-78
2024/02/16 11:56:33;;;;;;;6.47;1.77;;;17.30;54.60;;;;;;4054377;29;20049;-77
2024/02/16 11:58:36;;;;;;;4.85;2.00;;;17.30;54.10;;;;;;4066149;29;20178;-77
2024/02/16 12:00:37;;;;;;;6.28;2.08;;;17.20;53.90;;;;;;4071587;29;20054;-78
2024/02/16 12:02:40;;;;;;;5.00;1.70;;;17.30;54.40;;;;;;4072186;29;20476;-78
2024/02/16 12:04:42;;;;;;;7.97;2.00;;;17.30;54.30;;;;;;4071921;29;20092;-77
2024/02/16 12:06:47;;;;;;;4.65;1.90;;;17.20;54.30;;;;;;4072198;29;20410;-77
2024/02/16 12:08:50;;;;;;;4.07;1.70;;;17.20;54.30;;;;;;4072037;29;20048;-78
2024/02/16 12:10:53;;;;;;;3.88;1.70;;;17.30;54.50;;;;;;4071789;29;20044;-78
2024/02/16 12:12:55;;;;;;;5.50;2.03;;;17.30;54.90;;;;;;4071888;29;20446;-78
2024/02/16 12:14:57;;;;;;;5.05;2.30;;;17.30;54.60;;;;;;4071826;29;20048;-78
2024/02/16 12:16:59;;;;;;;5.97;2.00;;;17.20;54.80;;;;;;4071780;29;20056;-77
2024/02/16 12:19:07;;;;;;;5.75;2.00;;;17.20;54.90;;;;;;4071792;29;20482;-77
2024/02/16 12:21:09;;;;;;;4.80;1.73;;;17.20;54.80;;;;;;4071781;29;20048;-78
2024/02/16 12:23:14;;;;;;;4.20;1.90;;;17.30;55.00;;;;;;4071562;29;20052;-78
2024/02/16 12:25:16;;;;;;;4.32;1.90;;;17.20;55.00;;;;;;4071766;29;20103;-76
2024/02/16 12:27:18;;;;;;;4.78;2.05;;;17.10;54.70;;;;;;4071712;29;20044;-77
2024/02/16 12:29:20;;;;;;;4.55;2.00;;;17.10;55.30;;;;;;4071946;29;20055;-77
2024/02/16 12:31:23;;;;;;;5.35;2.03;;;17.10;55.60;;;;;;4071629;29;20479;-77
2024/02/16 12:33:25;;;;;;;6.75;1.80;;;17.00;55.40;;;;;;4071534;29;20060;-80
2024/02/16 12:35:29;;;;;;;5.72;2.17;;;17.00;55.70;;;;;;4071695;29;20062;-77
2024/02/16 12:37:30;;;;;;;5.28;2.08;;;17.00;55.80;;;;;;4071851;29;20048;-77
2024/02/16 12:39:32;;;;;;;5.88;1.90;;;16.80;56.10;;;;;;4071582;29;20051;-78
2024/02/16 12:41:34;;;;;;;6.47;2.17;;;16.80;56.20;;;;;;4071691;29;20123;-77
2024/02/16 12:43:37;;;;;;;5.07;2.25;;;16.80;56.30;;;;;;4071247;29;20148;-79
2024/02/16 12:45:39;;;;;;;7.43;2.50;;;16.80;56.40;;;;;;4071399;29;20103;-77
2024/02/16 12:47:40;;;;;;;5.20;1.90;;;16.70;56.60;;;;;;4071312;29;20103;-77
2024/02/16 12:49:42;;;;;;;5.72;1.80;;;16.80;56.70;;;;;;4071375;29;20084;-80
2024/02/16 12:51:47;;;;;;;5.00;2.03;;;16.80;56.90;;;;;;4070718;29;20448;-78
2024/02/16 12:53:50;;;;;;;5.20;2.08;;;16.80;56.80;;;;;;4071096;29;20048;-77
2024/02/16 12:55:51;;;;;;;3.80;1.50;;;16.80;56.70;;;;;;4071728;29;20099;-77
2024/02/16 12:57:53;;;;;;;5.38;1.85;;;16.80;56.80;;;;;;4071515;29;20117;-77
2024/02/16 12:59:55;;;;;;;5.10;1.90;;;16.80;56.90;;;;;;4071235;29;20111;-77
2024/02/16 13:01:57;;;;;;;4.78;1.60;;;16.80;56.70;;;;;;4071107;29;20112;-76
2024/02/16 13:03:59;;;;;;;4.95;1.75;;;16.80;56.80;;;;;;4065901;29;20056;-79
2024/02/16 13:06:00;;;;;;;5.70;1.90;;;16.80;56.90;;;;;;4066222;29;20557;-76
2024/02/16 13:08:05;;;;;;;4.18;1.73;;;16.80;56.80;;;;;;4066959;29;20080;-76
2024/02/16 13:10:08;;;;;;;4.45;1.70;;;16.90;56.80;;;;;;4068448;29;20279;-78
2024/02/16 13:12:10;;;;;;;4.88;1.60;;;16.80;57.10;;;;;;4068750;29;20446;-77
2024/02/16 13:14:12;;;;;;;5.88;1.98;;;16.80;57.10;;;;;;4066527;29;20112;-80
2024/02/16 13:16:13;;;;;;;5.72;1.80;;;16.80;57.40;;;;;;4067690;29;20052;-80
2024/02/16 13:18:15;;;;;;;4.30;1.50;;;16.80;57.20;;;;;;4061640;29;20096;-81
2024/02/16 13:20:17;;;;;;;5.38;1.75;;;16.80;57.50;;;;;;4068024;29;20056;-82
2024/02/16 13:22:18;;;;;;;5.43;2.00;;;16.90;57.40;;;;;;4069575;29;20498;-82
2024/02/16 13:24:22;;;;;;;5.32;2.03;;;16.80;57.40;;;;;;4068680;29;20108;-79
2024/02/16 13:26:23;;;;;;;4.35;1.85;;;16.80;57.50;;;;;;4068920;29;20053;-79
2024/02/16 13:28:25;;;;;;;6.28;1.70;;;16.80;57.60;;;;;;4051260;29;20096;-81
2024/02/16 13:30:27;;;;;;;5.93;1.90;;;16.90;57.70;;;;;;4068067;29;20052;-79
2024/02/16 13:32:28;;;;;;;6.63;1.90;;;16.80;57.70;;;;;;4066785;29;20417;-79
2024/02/16 13:34:30;;;;;;;5.47;1.80;;;16.80;58.00;;;;;;4062730;29;20048;-78
2024/02/16 13:36:32;;;;;;;5.93;2.10;;;16.80;58.00;;;;;;4055950;29;20049;-80
2024/02/16 13:38:34;;;;;;;5.07;1.98;;;16.80;58.10;;;;;;4061566;29;20048;-76
2024/02/16 13:40:37;;;;;;;6.20;2.00;;;16.80;58.20;;;;;;4064873;29;20047;-78
2024/02/16 13:42:40;;;;;;;6.97;1.80;;;16.90;58.20;;;;;;4065119;29;20044;-79
2024/02/16 13:44:42;;;;;;;6.65;2.00;;;16.80;58.30;;;;;;4065022;29;20174;-79
2024/02/16 13:46:47;;;;;;;5.60;1.98;;;16.90;58.40;;;;;;4066773;29;20528;-80
2024/02/16 13:48:49;;;;;;;6.28;2.42;;;16.80;58.50;;;;;;4064692;29;20077;-77
2024/02/16 13:50:51;;;;;;;5.55;1.73;;;16.80;58.60;;;;;;4066213;29;20051;-79
2024/02/16 13:52:54;;;;;;;6.07;2.00;;;16.90;58.80;;;;;;4066234;29;20383;-77
2024/02/16 13:54:56;;;;;;;4.50;1.70;;;16.90;58.70;;;;;;4067233;29;20078;-78
2024/02/16 13:56:59;;;;;;;4.47;1.90;;;16.90;58.70;;;;;;4071316;29;20056;-77
2024/02/16 13:59:01;;;;;;;5.35;2.13;;;16.90;58.60;;;;;;4064806;29;20063;-79
2024/02/16 14:01:04;;;;;;;5.07;2.08;;;17.00;58.70;;;;;;4063592;29;20144;-80
2024/02/16 14:03:08;;;;;;;5.05;1.98;;;16.90;58.80;;;;;;4065914;29;20112;-78
2024/02/16 14:05:10;;;;;;;7.30;2.00;;;16.90;59.00;;;;;;4063470;29;20048;-77
2024/02/16 14:07:11;;;;;;;5.75;2.25;;;16.90;59.10;;;;;;4072400;29;20044;-77
2024/02/16 14:09:13;;;;;;;6.03;2.17;;;16.90;59.10;;;;;;4064355;29;20496;-76
2024/02/16 14:11:15;;;;;;;8.15;2.55;;;16.90;59.30;;;;;;4066056;29;20048;-80
2024/02/16 14:13:17;;;;;;;6.93;2.20;;;16.90;59.10;;;;;;4066929;29;20059;-79
2024/02/16 14:15:20;;;;;;;7.75;2.22;;;16.90;59.20;;;;;;4059947;29;20467;-79
2024/02/16 14:17:22;;;;;;;6.38;2.13;;;16.90;59.40;;;;;;4072000;29;20086;-80
2024/02/16 14:19:23;;;;;;;7.15;2.13;;;16.80;59.20;;;;;;4064071;29;20116;-79
2024/02/16 14:21:25;;;;;;;5.63;1.88;;;16.80;59.40;;;;;;4067547;29;20140;-79
2024/02/16 14:23:27;;;;;;;5.45;1.95;;;16.80;59.50;;;;;;4063700;29;20135;-78
2024/02/16 14:25:29;;;;;;;6.32;2.03;;;16.80;59.90;;;;;;4066300;29;20458;-76
2024/02/16 14:27:30;;;;;;;5.60;2.20;;;16.80;59.90;;;;;;4067835;29;20056;-78
2024/02/16 14:29:34;;;;;;;5.53;2.28;;;16.80;59.90;;;;;;4054308;29;20415;-80
2024/02/16 14:31:35;;;;;;;7.75;2.30;;;16.80;60.10;;;;;;4063954;29;20174;-76
2024/02/16 14:33:37;;;;;;;5.63;2.03;;;16.80;60.30;;;;;;4063537;29;20058;-77
2024/02/16 14:35:39;;;;;;;6.78;2.33;;;16.80;60.60;;;;;;4065096;29;20084;-76
2024/02/16 14:37:41;;;;;;;7.72;1.95;;;16.80;60.70;;;;;;4065533;29;20044;-78
2024/02/16 14:39:43;;;;;;;5.47;2.10;;;16.80;60.70;;;;;;4065015;29;20111;-77
2024/02/16 14:41:44;;;;;;;7.80;2.28;;;16.80;61.00;;;;;;4065496;29;20055;-77
2024/02/16 14:43:46;;;;;;;7.38;2.55;;;16.80;60.40;;;;;;4064892;29;20095;-76
2024/02/16 14:45:49;;;;;;;8.15;2.50;;;16.80;60.80;;;;;;4065382;29;20099;-77
2024/02/16 14:47:50;;;;;;;7.80;2.75;;;16.80;61.00;;;;;;4062501;29;20538;-79
2024/02/16 14:49:52;;;;;;;7.20;2.08;;;16.80;60.90;;;;;;4063822;29;20316;-79
2024/02/16 14:51:54;;;;;;;6.50;1.90;;;16.70;61.40;;;;;;4058982;29;20056;-77
2024/02/16 14:53:56;;;;;;;9.82;2.30;;;16.70;61.80;;;;;;4060542;29;20055;-77
2024/02/16 14:56:00;;;;;;;6.20;2.22;;;16.70;61.80;;;;;;4062388;29;20048;-77
2024/02/16 14:58:02;;;;;;;7.05;1.90;;;16.70;61.80;;;;;;4064994;29;20052;-78
2024/02/16 15:00:08;;;;;;;6.22;2.30;;;16.70;61.80;;;;;;4065084;29;20063;-79
2024/02/16 15:02:11;;;;;;;6.10;2.30;;;16.70;62.10;;;;;;4065700;29;20064;-77
2024/02/16 15:04:12;;;;;;;5.63;2.25;;;16.70;62.20;;;;;;4065256;29;20052;-79
2024/02/16 15:06:14;;;;;;;7.28;2.22;;;16.70;62.10;;;;;;4074099;29;20538;-77
2024/02/16 15:08:15;;;;;;;7.22;2.15;;;16.70;62.20;;;;;;4065649;29;20101;-77
2024/02/16 15:10:17;;;;;;;7.47;2.20;;;16.80;62.40;;;;;;4070597;29;20052;-79
2024/02/16 15:12:19;;;;;;;8.63;2.28;;;16.70;62.40;;;;;;4064344;29;20096;-77
2024/02/16 15:14:22;;;;;;;6.75;2.17;;;16.70;62.50;;;;;;4063104;29;20059;-78
2024/02/16 15:16:24;;;;;;;6.75;2.45;;;16.70;62.80;;;;;;4064925;29;20468;-77
2024/02/16 15:18:27;;;;;;;8.45;2.50;;;16.70;62.90;;;;;;4065024;29;20055;-77
2024/02/16 15:20:30;;;;;;;6.30;1.85;;;16.70;63.20;;;;;;4072935;29;20056;-78
2024/02/16 15:22:32;;;;;;;10.38;2.10;;;16.70;63.60;;;;;;4067412;29;20052;-77
2024/02/16 15:24:34;;;;;;;9.00;2.17;;;16.60;63.80;;;;;;4063777;29;20442;-78
2024/02/16 15:26:36;;;;;;;8.27;2.10;;;16.60;64.10;;;;;;4064861;29;20052;-77
2024/02/16 15:28:37;;;;;;;6.55;1.85;;;16.60;64.20;;;;;;4064070;29;20083;-77
2024/02/16 15:30:40;;;;;;;9.43;2.22;;;16.50;64.60;;;;;;4065378;29;20100;-77
2024/02/16 15:32:41;;;;;;;8.63;2.13;;;16.50;65.40;;;;;;4059754;29;20424;-77
2024/02/16 15:34:49;;;;;;;10.00;2.80;;;16.40;64.80;;;;;;4061614;29;20394;-77
2024/02/16 15:36:51;;;;;;;9.15;2.05;;;16.40;64.80;;;;;;4064426;29;20115;-78
2024/02/16 15:38:53;;;;;;;10.65;2.55;;;16.40;65.00;;;;;;4069255;29;20107;-78
2024/02/16 15:40:55;;;;;;;9.95;2.00;;;16.40;65.10;;;;;;4071333;29;20096;-77
2024/02/16 15:43:01;;;;;;;6.72;2.00;;;16.40;65.30;;;;;;4065177;29;20040;-76
2024/02/16 15:45:04;;;;;;;10.63;2.20;;;16.40;65.50;;;;;;4064180;29;20140;-77
2024/02/16 15:47:06;;;;;;;8.93;2.20;;;16.30;65.90;;;;;;4064848;29;20115;-80
2024/02/16 15:49:09;;;;;;;5.60;2.10;;;16.30;66.20;;;;;;4064352;29;20115;-75
2024/02/16 15:51:12;;;;;;;7.85;1.95;;;16.20;66.20;;;;;;4044607;29;20076;-77
2024/02/16 15:53:14;;;;;;;7.72;2.15;;;16.20;66.30;;;;;;4057857;29;20096;-79
2024/02/16 15:55:15;;;;;;;5.95;1.92;;;16.20;66.10;;;;;;4064394;29;20048;-78
2024/02/16 15:57:18;;;;;;;7.30;2.35;;;16.20;66.30;;;;;;4064400;29;20107;-77
2024/02/16 15:59:20;;;;;;;11.23;4.68;;;16.20;66.40;;;;;;4064183;29;20051;-76
2024/02/16 16:01:22;;;;;;;11.88;3.65;;;16.20;66.60;;;;;;4063986;29;20570;-79
2024/02/16 16:03:24;;;;;;;8.27;3.20;;;16.10;66.60;;;;;;4063985;29;20052;-76
2024/02/16 16:05:27;;;;;;;8.52;2.10;;;16.20;66.70;;;;;;4064805;29;20044;-80
2024/02/16 16:07:30;;;;;;;7.47;2.10;;;16.20;66.70;;;;;;4064558;29;20091;-75
2024/02/16 16:09:32;;;;;;;7.93;1.92;;;16.10;66.70;;;;;;4060020;29;20056;-79
2024/02/16 16:11:34;;;;;;;6.93;2.17;;;16.10;66.80;;;;;;4064075;29;20135;-78
2024/02/16 16:13:37;;;;;;;7.28;2.00;;;16.10;67.10;;;;;;4064782;29;20051;-76
2024/02/16 16:15:37;;;;;;;7.75;2.30;;;16.00;67.20;;;;;;4062076;29;20506;-76
2024/02/16 16:17:39;;;;;;;10.70;2.40;;;16.10;67.30;;;;;;4064512;29;20099;-77
2024/02/16 16:19:41;;;;;;;7.93;2.10;;;16.00;67.30;;;;;;4064599;29;20052;-76
2024/02/16 16:21:43;;;;;;;8.52;2.20;;;16.00;67.30;;;;;;4065182;29;20474;-79
2024/02/16 16:23:46;;;;;;;7.20;1.90;;;16.00;67.30;;;;;;4065695;29;20044;-77
2024/02/16 16:25:48;;;;;;;6.72;1.90;;;16.00;67.30;;;;;;4063782;29;20048;-77
2024/02/16 16:27:50;;;;;;;6.07;1.95;;;16.00;67.40;;;;;;4060055;29;20060;-77
2024/02/16 16:29:52;;;;;;;7.35;2.20;;;15.90;67.70;;;;;;4064799;29;20442;-76
2024/02/16 16:31:54;;;;;;;7.93;2.22;;;15.90;67.70;;;;;;4061899;29;20104;-80
2024/02/16 16:33:56;;;;;;;8.30;2.38;;;15.90;67.70;;;;;;4061064;29;20131;-77
2024/02/16 16:35:58;;;;;;;8.90;2.03;;;15.80;67.80;;;;;;4065473;29;20182;-79
2024/02/16 16:38:00;;;;;;;8.85;2.03;;;15.90;67.90;;;;;;4064889;29;20107;-76